sensor_id;sensor_type;location;lat;lon;timestamp;P1;durP1;ratioP1;P2;durP2;ratioP2
3795;SDS011;1913;50.660;7.834;2023-10-13T00:01:32;41.57;;;24.17;;
3795;SDS011;1913;50.660;7.834;2023-10-13T00:03:59;37.73;;;22.90;;
3795;SDS011;1913;50.660;7.834;2023-10-13T00:06:24;38.47;;;23.50;;
3795;SDS011;1913;50.660;7.834;2023-10-13T00:08:51;38.77;;;23.37;;
3795;SDS011;1913;50.660;7.834;2023-10-13T00:11:17;37.77;;;23.67;;
3795;SDS011;1913;50.660;7.834;2023-10-13T00:13:43;41.70;;;23.90;;
3795;SDS011;1913;50.660;7.834;2023-10-13T00:16:15;36.50;;;22.40;;
3795;SDS011;1913;50.660;7.834;2023-10-13T00:18:43;40.97;;;22.30;;
3795;SDS011;1913;50.660;7.834;2023-10-13T00:21:09;39.03;;;23.57;;
3795;SDS011;1913;50.660;7.834;2023-10-13T00:23:42;36.93;;;20.13;;
3795;SDS011;1913;50.660;7.834;2023-10-13T00:26:17;38.37;;;22.80;;
3795;SDS011;1913;50.660;7.834;2023-10-13T00:28:43;39.70;;;23.90;;
3795;SDS011;1913;50.660;7.834;2023-10-13T00:31:11;37.30;;;20.63;;
3795;SDS011;1913;50.660;7.834;2023-10-13T00:33:39;42.90;;;22.10;;
3795;SDS011;1913;50.660;7.834;2023-10-13T00:36:07;36.83;;;21.60;;
3795;SDS011;1913;50.660;7.834;2023-10-13T00:38:33;37.43;;;21.73;;
3795;SDS011;1913;50.660;7.834;2023-10-13T00:41:00;35.07;;;22.73;;
3795;SDS011;1913;50.660;7.834;2023-10-13T00:43:48;35.17;;;22.20;;
3795;SDS011;1913;50.660;7.834;2023-10-13T00:46:30;43.20;;;21.60;;
3795;SDS011;1913;50.660;7.834;2023-10-13T00:48:59;41.60;;;23.90;;
3795;SDS011;1913;50.660;7.834;2023-10-13T00:51:25;38.93;;;23.03;;
3795;SDS011;1913;50.660;7.834;2023-10-13T00:54:06;40.47;;;23.37;;
3795;SDS011;1913;50.660;7.834;2023-10-13T00:56:37;41.67;;;23.57;;
3795;SDS011;1913;50.660;7.834;2023-10-13T00:59:06;35.77;;;23.23;;
3795;SDS011;1913;50.660;7.834;2023-10-13T01:01:34;43.13;;;24.70;;
3795;SDS011;1913;50.660;7.834;2023-10-13T01:04:01;47.37;;;24.27;;
3795;SDS011;1913;50.660;7.834;2023-10-13T01:06:30;41.03;;;22.20;;
3795;SDS011;1913;50.660;7.834;2023-10-13T01:08:56;41.93;;;22.90;;
3795;SDS011;1913;50.660;7.834;2023-10-13T01:11:24;41.40;;;22.87;;
3795;SDS011;1913;50.660;7.834;2023-10-13T01:13:52;33.93;;;22.10;;
3795;SDS011;1913;50.660;7.834;2023-10-13T01:16:19;36.13;;;21.57;;
3795;SDS011;1913;50.660;7.834;2023-10-13T01:18:48;32.20;;;19.30;;
3795;SDS011;1913;50.660;7.834;2023-10-13T01:21:15;47.13;;;22.77;;
3795;SDS011;1913;50.660;7.834;2023-10-13T01:23:44;34.93;;;21.03;;
3795;SDS011;1913;50.660;7.834;2023-10-13T01:26:11;46.87;;;22.87;;
3795;SDS011;1913;50.660;7.834;2023-10-13T01:28:41;38.97;;;23.60;;
3795;SDS011;1913;50.660;7.834;2023-10-13T01:31:11;39.93;;;21.40;;
3795;SDS011;1913;50.660;7.834;2023-10-13T01:33:38;40.70;;;21.57;;
3795;SDS011;1913;50.660;7.834;2023-10-13T01:36:03;39.40;;;21.83;;
3795;SDS011;1913;50.660;7.834;2023-10-13T01:38:34;46.90;;;22.17;;
3795;SDS011;1913;50.660;7.834;2023-10-13T01:41:04;35.07;;;21.60;;
3795;SDS011;1913;50.660;7.834;2023-10-13T01:43:30;30.07;;;20.70;;
3795;SDS011;1913;50.660;7.834;2023-10-13T01:45:55;37.90;;;21.33;;
3795;SDS011;1913;50.660;7.834;2023-10-13T01:48:20;33.00;;;21.27;;
3795;SDS011;1913;50.660;7.834;2023-10-13T01:50:46;29.10;;;19.63;;
3795;SDS011;1913;50.660;7.834;2023-10-13T01:53:13;36.37;;;20.70;;
3795;SDS011;1913;50.660;7.834;2023-10-13T01:55:39;37.23;;;19.80;;
3795;SDS011;1913;50.660;7.834;2023-10-13T01:58:12;31.90;;;19.23;;
3795;SDS011;1913;50.660;7.834;2023-10-13T02:00:45;37.97;;;20.00;;
3795;SDS011;1913;50.660;7.834;2023-10-13T02:03:12;31.87;;;19.30;;
3795;SDS011;1913;50.660;7.834;2023-10-13T02:05:45;31.67;;;19.77;;
3795;SDS011;1913;50.660;7.834;2023-10-13T02:08:15;41.83;;;20.53;;
3795;SDS011;1913;50.660;7.834;2023-10-13T02:10:53;37.30;;;18.10;;
3795;SDS011;1913;50.660;7.834;2023-10-13T02:13:20;35.03;;;20.37;;
3795;SDS011;1913;50.660;7.834;2023-10-13T02:15:48;32.93;;;18.83;;
3795;SDS011;1913;50.660;7.834;2023-10-13T02:18:16;36.07;;;19.13;;
3795;SDS011;1913;50.660;7.834;2023-10-13T02:21:01;34.47;;;19.83;;
3795;SDS011;1913;50.660;7.834;2023-10-13T02:23:29;30.90;;;19.00;;
3795;SDS011;1913;50.660;7.834;2023-10-13T02:25:55;34.23;;;20.10;;
3795;SDS011;1913;50.660;7.834;2023-10-13T02:28:41;34.87;;;20.53;;
3795;SDS011;1913;50.660;7.834;2023-10-13T02:31:07;38.27;;;20.07;;
3795;SDS011;1913;50.660;7.834;2023-10-13T02:33:32;39.10;;;23.17;;
3795;SDS011;1913;50.660;7.834;2023-10-13T02:36:02;35.33;;;22.10;;
3795;SDS011;1913;50.660;7.834;2023-10-13T02:38:30;38.20;;;21.10;;
3795;SDS011;1913;50.660;7.834;2023-10-13T02:41:11;41.50;;;21.90;;
3795;SDS011;1913;50.660;7.834;2023-10-13T02:43:41;41.33;;;22.90;;
3795;SDS011;1913;50.660;7.834;2023-10-13T02:46:08;47.90;;;24.50;;
3795;SDS011;1913;50.660;7.834;2023-10-13T02:48:34;47.93;;;23.20;;
3795;SDS011;1913;50.660;7.834;2023-10-13T02:51:06;43.30;;;24.03;;
3795;SDS011;1913;50.660;7.834;2023-10-13T02:53:42;38.30;;;23.00;;
3795;SDS011;1913;50.660;7.834;2023-10-13T02:56:12;43.47;;;23.47;;
3795;SDS011;1913;50.660;7.834;2023-10-13T02:58:38;42.17;;;23.50;;
3795;SDS011;1913;50.660;7.834;2023-10-13T03:01:08;40.03;;;22.70;;
3795;SDS011;1913;50.660;7.834;2023-10-13T03:03:43;40.63;;;22.70;;
3795;SDS011;1913;50.660;7.834;2023-10-13T03:06:12;39.20;;;20.37;;
3795;SDS011;1913;50.660;7.834;2023-10-13T03:08:38;37.83;;;20.77;;
3795;SDS011;1913;50.660;7.834;2023-10-13T03:11:04;35.47;;;20.23;;
3795;SDS011;1913;50.660;7.834;2023-10-13T03:13:30;44.60;;;22.40;;
3795;SDS011;1913;50.660;7.834;2023-10-13T03:15:58;34.90;;;19.73;;
3795;SDS011;1913;50.660;7.834;2023-10-13T03:18:24;33.83;;;19.87;;
3795;SDS011;1913;50.660;7.834;2023-10-13T03:20:49;35.67;;;19.40;;
3795;SDS011;1913;50.660;7.834;2023-10-13T03:23:22;40.37;;;19.70;;
3795;SDS011;1913;50.660;7.834;2023-10-13T03:25:49;33.73;;;17.90;;
3795;SDS011;1913;50.660;7.834;2023-10-13T03:28:20;31.83;;;19.20;;
3795;SDS011;1913;50.660;7.834;2023-10-13T03:30:50;37.90;;;19.90;;
3795;SDS011;1913;50.660;7.834;2023-10-13T03:33:17;40.50;;;19.90;;
3795;SDS011;1913;50.660;7.834;2023-10-13T03:35:51;33.80;;;20.47;;
3795;SDS011;1913;50.660;7.834;2023-10-13T03:38:19;34.57;;;19.70;;
3795;SDS011;1913;50.660;7.834;2023-10-13T03:40:47;38.80;;;19.77;;
3795;SDS011;1913;50.660;7.834;2023-10-13T03:43:21;28.07;;;18.70;;
3795;SDS011;1913;50.660;7.834;2023-10-13T03:45:47;35.93;;;18.60;;
3795;SDS011;1913;50.660;7.834;2023-10-13T03:48:18;39.27;;;18.20;;
3795;SDS011;1913;50.660;7.834;2023-10-13T03:50:50;32.53;;;18.50;;
3795;SDS011;1913;50.660;7.834;2023-10-13T03:53:28;26.13;;;17.40;;
3795;SDS011;1913;50.660;7.834;2023-10-13T03:56:01;32.60;;;16.97;;
3795;SDS011;1913;50.660;7.834;2023-10-13T03:58:37;29.97;;;16.97;;
3795;SDS011;1913;50.660;7.834;2023-10-13T04:01:04;41.80;;;17.63;;
3795;SDS011;1913;50.660;7.834;2023-10-13T04:03:35;27.60;;;16.80;;
3795;SDS011;1913;50.660;7.834;2023-10-13T04:06:01;36.40;;;18.40;;
3795;SDS011;1913;50.660;7.834;2023-10-13T04:08:33;28.27;;;16.20;;
3795;SDS011;1913;50.660;7.834;2023-10-13T04:11:07;34.00;;;16.73;;
3795;SDS011;1913;50.660;7.834;2023-10-13T04:13:51;31.37;;;16.90;;
3795;SDS011;1913;50.660;7.834;2023-10-13T04:16:34;32.73;;;16.50;;
3795;SDS011;1913;50.660;7.834;2023-10-13T04:19:01;38.07;;;16.30;;
3795;SDS011;1913;50.660;7.834;2023-10-13T04:21:27;32.00;;;15.40;;
3795;SDS011;1913;50.660;7.834;2023-10-13T04:24:08;32.70;;;15.93;;
3795;SDS011;1913;50.660;7.834;2023-10-13T04:26:53;28.90;;;15.60;;
3795;SDS011;1913;50.660;7.834;2023-10-13T04:29:37;28.90;;;16.83;;
3795;SDS011;1913;50.660;7.834;2023-10-13T04:32:15;28.80;;;16.93;;
3795;SDS011;1913;50.660;7.834;2023-10-13T04:34:53;31.70;;;17.40;;
3795;SDS011;1913;50.660;7.834;2023-10-13T04:37:23;28.30;;;16.57;;
3795;SDS011;1913;50.660;7.834;2023-10-13T04:39:55;32.47;;;17.83;;
3795;SDS011;1913;50.660;7.834;2023-10-13T04:42:36;33.83;;;16.80;;
3795;SDS011;1913;50.660;7.834;2023-10-13T04:45:14;36.33;;;17.13;;
3795;SDS011;1913;50.660;7.834;2023-10-13T04:48:01;31.17;;;17.20;;
3795;SDS011;1913;50.660;7.834;2023-10-13T04:50:52;33.53;;;16.77;;
3795;SDS011;1913;50.660;7.834;2023-10-13T04:53:43;33.07;;;17.90;;
3795;SDS011;1913;50.660;7.834;2023-10-13T04:56:35;35.67;;;17.10;;
3795;SDS011;1913;50.660;7.834;2023-10-13T04:59:06;33.10;;;15.97;;
3795;SDS011;1913;50.660;7.834;2023-10-13T05:02:00;26.33;;;15.57;;
3795;SDS011;1913;50.660;7.834;2023-10-13T05:04:45;39.90;;;17.97;;
3795;SDS011;1913;50.660;7.834;2023-10-13T05:07:29;27.60;;;16.23;;
3795;SDS011;1913;50.660;7.834;2023-10-13T05:10:13;41.33;;;18.20;;
3795;SDS011;1913;50.660;7.834;2023-10-13T05:12:57;26.20;;;17.27;;
3795;SDS011;1913;50.660;7.834;2023-10-13T05:15:44;38.20;;;16.43;;
3795;SDS011;1913;50.660;7.834;2023-10-13T05:18:31;39.20;;;16.87;;
3795;SDS011;1913;50.660;7.834;2023-10-13T05:21:14;34.40;;;17.50;;
3795;SDS011;1913;50.660;7.834;2023-10-13T05:23:58;38.00;;;16.33;;
3795;SDS011;1913;50.660;7.834;2023-10-13T05:26:42;31.07;;;16.40;;
3795;SDS011;1913;50.660;7.834;2023-10-13T05:29:25;36.97;;;16.13;;
3795;SDS011;1913;50.660;7.834;2023-10-13T05:32:09;25.13;;;14.70;;
3795;SDS011;1913;50.660;7.834;2023-10-13T05:34:53;28.13;;;14.90;;
3795;SDS011;1913;50.660;7.834;2023-10-13T05:37:36;23.30;;;13.77;;
3795;SDS011;1913;50.660;7.834;2023-10-13T05:40:20;29.47;;;13.40;;
3795;SDS011;1913;50.660;7.834;2023-10-13T05:43:04;29.33;;;13.97;;
3795;SDS011;1913;50.660;7.834;2023-10-13T05:45:47;27.80;;;13.83;;
3795;SDS011;1913;50.660;7.834;2023-10-13T05:48:31;29.33;;;12.97;;
3795;SDS011;1913;50.660;7.834;2023-10-13T05:51:07;29.03;;;12.90;;
3795;SDS011;1913;50.660;7.834;2023-10-13T05:53:51;30.60;;;12.50;;
3795;SDS011;1913;50.660;7.834;2023-10-13T05:56:34;25.63;;;13.20;;
3795;SDS011;1913;50.660;7.834;2023-10-13T05:59:18;17.80;;;11.90;;
3795;SDS011;1913;50.660;7.834;2023-10-13T06:02:02;22.70;;;12.27;;
3795;SDS011;1913;50.660;7.834;2023-10-13T06:04:45;31.90;;;12.30;;
3795;SDS011;1913;50.660;7.834;2023-10-13T06:07:30;22.67;;;11.33;;
3795;SDS011;1913;50.660;7.834;2023-10-13T06:10:13;29.63;;;11.53;;
3795;SDS011;1913;50.660;7.834;2023-10-13T06:12:57;30.10;;;12.07;;
3795;SDS011;1913;50.660;7.834;2023-10-13T06:15:41;25.10;;;11.53;;
3795;SDS011;1913;50.660;7.834;2023-10-13T06:18:25;22.10;;;10.93;;
3795;SDS011;1913;50.660;7.834;2023-10-13T06:21:08;27.77;;;10.50;;
3795;SDS011;1913;50.660;7.834;2023-10-13T06:23:52;19.83;;;11.13;;
3795;SDS011;1913;50.660;7.834;2023-10-13T06:26:36;27.37;;;11.47;;
3795;SDS011;1913;50.660;7.834;2023-10-13T06:29:20;22.70;;;10.67;;
3795;SDS011;1913;50.660;7.834;2023-10-13T06:31:46;21.60;;;9.17;;
3795;SDS011;1913;50.660;7.834;2023-10-13T06:34:12;24.53;;;10.30;;
3795;SDS011;1913;50.660;7.834;2023-10-13T06:36:40;29.30;;;10.00;;
3795;SDS011;1913;50.660;7.834;2023-10-13T06:39:06;30.00;;;9.43;;
3795;SDS011;1913;50.660;7.834;2023-10-13T06:42:07;19.77;;;9.23;;
3795;SDS011;1913;50.660;7.834;2023-10-13T06:44:33;23.63;;;9.60;;
3795;SDS011;1913;50.660;7.834;2023-10-13T06:46:59;19.93;;;9.57;;
3795;SDS011;1913;50.660;7.834;2023-10-13T06:49:29;19.13;;;9.13;;
3795;SDS011;1913;50.660;7.834;2023-10-13T06:51:55;21.53;;;9.27;;
3795;SDS011;1913;50.660;7.834;2023-10-13T06:54:25;17.03;;;8.70;;
3795;SDS011;1913;50.660;7.834;2023-10-13T06:56:53;15.63;;;8.57;;
3795;SDS011;1913;50.660;7.834;2023-10-13T06:59:19;25.80;;;8.60;;
3795;SDS011;1913;50.660;7.834;2023-10-13T07:01:44;25.50;;;9.23;;
3795;SDS011;1913;50.660;7.834;2023-10-13T07:04:10;21.13;;;8.87;;
3795;SDS011;1913;50.660;7.834;2023-10-13T07:06:41;20.17;;;8.27;;
3795;SDS011;1913;50.660;7.834;2023-10-13T07:09:12;19.00;;;7.90;;
3795;SDS011;1913;50.660;7.834;2023-10-13T07:11:52;18.60;;;7.13;;
3795;SDS011;1913;50.660;7.834;2023-10-13T07:14:18;18.60;;;9.10;;
3795;SDS011;1913;50.660;7.834;2023-10-13T07:17:05;19.33;;;8.33;;
3795;SDS011;1913;50.660;7.834;2023-10-13T07:19:32;18.07;;;7.30;;
3795;SDS011;1913;50.660;7.834;2023-10-13T07:21:59;19.03;;;7.80;;
3795;SDS011;1913;50.660;7.834;2023-10-13T07:24:44;21.60;;;8.07;;
3795;SDS011;1913;50.660;7.834;2023-10-13T07:27:16;15.80;;;7.40;;
3795;SDS011;1913;50.660;7.834;2023-10-13T07:29:52;27.53;;;7.67;;
3795;SDS011;1913;50.660;7.834;2023-10-13T07:32:41;23.80;;;7.80;;
3795;SDS011;1913;50.660;7.834;2023-10-13T07:35:14;21.40;;;7.90;;
3795;SDS011;1913;50.660;7.834;2023-10-13T07:37:42;17.47;;;7.10;;
3795;SDS011;1913;50.660;7.834;2023-10-13T07:40:08;16.83;;;6.83;;
3795;SDS011;1913;50.660;7.834;2023-10-13T07:42:55;23.83;;;6.93;;
3795;SDS011;1913;50.660;7.834;2023-10-13T07:45:35;19.23;;;7.37;;
3795;SDS011;1913;50.660;7.834;2023-10-13T07:48:06;20.67;;;7.20;;
3795;SDS011;1913;50.660;7.834;2023-10-13T07:50:44;20.53;;;6.93;;
3795;SDS011;1913;50.660;7.834;2023-10-13T07:53:10;16.10;;;6.63;;
3795;SDS011;1913;50.660;7.834;2023-10-13T07:55:47;21.50;;;7.37;;
3795;SDS011;1913;50.660;7.834;2023-10-13T07:58:21;16.77;;;6.67;;
3795;SDS011;1913;50.660;7.834;2023-10-13T08:00:50;15.80;;;6.33;;
3795;SDS011;1913;50.660;7.834;2023-10-13T08:03:20;16.63;;;6.70;;
3795;SDS011;1913;50.660;7.834;2023-10-13T08:06:00;19.20;;;6.93;;
3795;SDS011;1913;50.660;7.834;2023-10-13T08:08:37;22.87;;;6.90;;
3795;SDS011;1913;50.660;7.834;2023-10-13T08:11:06;21.30;;;5.50;;
3795;SDS011;1913;50.660;7.834;2023-10-13T08:13:37;16.93;;;6.20;;
3795;SDS011;1913;50.660;7.834;2023-10-13T08:16:04;18.63;;;6.90;;
3795;SDS011;1913;50.660;7.834;2023-10-13T08:18:34;23.63;;;7.07;;
3795;SDS011;1913;50.660;7.834;2023-10-13T08:21:01;18.17;;;6.30;;
3795;SDS011;1913;50.660;7.834;2023-10-13T08:23:41;21.33;;;6.63;;
3795;SDS011;1913;50.660;7.834;2023-10-13T08:26:18;22.40;;;7.00;;
3795;SDS011;1913;50.660;7.834;2023-10-13T08:28:59;21.70;;;6.17;;
3795;SDS011;1913;50.660;7.834;2023-10-13T08:31:44;19.93;;;6.20;;
3795;SDS011;1913;50.660;7.834;2023-10-13T08:34:31;21.17;;;6.67;;
3795;SDS011;1913;50.660;7.834;2023-10-13T08:37:09;21.27;;;6.40;;
3795;SDS011;1913;50.660;7.834;2023-10-13T08:39:50;16.73;;;6.30;;
3795;SDS011;1913;50.660;7.834;2023-10-13T08:42:32;18.23;;;6.23;;
3795;SDS011;1913;50.660;7.834;2023-10-13T08:45:14;14.70;;;6.37;;
3795;SDS011;1913;50.660;7.834;2023-10-13T08:48:06;17.23;;;6.50;;
3795;SDS011;1913;50.660;7.834;2023-10-13T08:58:30;18.10;;;7.03;;
3795;SDS011;1913;50.660;7.834;2023-10-13T09:01:15;26.07;;;6.87;;
3795;SDS011;1913;50.660;7.834;2023-10-13T09:04:00;18.03;;;7.03;;
3795;SDS011;1913;50.660;7.834;2023-10-13T09:06:46;16.50;;;6.03;;
3795;SDS011;1913;50.660;7.834;2023-10-13T09:09:30;18.97;;;6.70;;
3795;SDS011;1913;50.660;7.834;2023-10-13T09:12:29;17.67;;;6.47;;
3795;SDS011;1913;50.660;7.834;2023-10-13T09:14:59;18.70;;;6.10;;
3795;SDS011;1913;50.660;7.834;2023-10-13T09:17:46;15.43;;;6.57;;
3795;SDS011;1913;50.660;7.834;2023-10-13T09:20:16;16.37;;;6.43;;
3795;SDS011;1913;50.660;7.834;2023-10-13T09:22:57;15.90;;;6.70;;
3795;SDS011;1913;50.660;7.834;2023-10-13T09:25:26;14.33;;;6.30;;
3795;SDS011;1913;50.660;7.834;2023-10-13T09:28:03;11.57;;;6.30;;
3795;SDS011;1913;50.660;7.834;2023-10-13T09:30:53;19.73;;;6.83;;
3795;SDS011;1913;50.660;7.834;2023-10-13T09:33:25;14.13;;;6.60;;
3795;SDS011;1913;50.660;7.834;2023-10-13T09:36:10;21.63;;;7.23;;
3795;SDS011;1913;50.660;7.834;2023-10-13T09:38:37;17.40;;;7.77;;
3795;SDS011;1913;50.660;7.834;2023-10-13T09:41:05;16.83;;;6.90;;
3795;SDS011;1913;50.660;7.834;2023-10-13T09:43:57;15.67;;;6.47;;
3795;SDS011;1913;50.660;7.834;2023-10-13T09:46:25;12.50;;;6.70;;
3795;SDS011;1913;50.660;7.834;2023-10-13T09:49:02;13.10;;;6.27;;
3795;SDS011;1913;50.660;7.834;2023-10-13T09:51:48;14.37;;;7.30;;
3795;SDS011;1913;50.660;7.834;2023-10-13T09:54:14;13.27;;;6.83;;
3795;SDS011;1913;50.660;7.834;2023-10-13T09:56:46;15.73;;;7.03;;
3795;SDS011;1913;50.660;7.834;2023-10-13T09:59:19;17.67;;;7.50;;
3795;SDS011;1913;50.660;7.834;2023-10-13T10:01:49;14.57;;;6.93;;
3795;SDS011;1913;50.660;7.834;2023-10-13T10:04:16;12.57;;;7.03;;
3795;SDS011;1913;50.660;7.834;2023-10-13T10:06:56;18.73;;;6.80;;
3795;SDS011;1913;50.660;7.834;2023-10-13T10:09:30;17.30;;;7.33;;
3795;SDS011;1913;50.660;7.834;2023-10-13T10:12:08;11.77;;;6.67;;
3795;SDS011;1913;50.660;7.834;2023-10-13T10:17:38;15.80;;;7.30;;
3795;SDS011;1913;50.660;7.834;2023-10-13T10:20:06;16.07;;;8.00;;
3795;SDS011;1913;50.660;7.834;2023-10-13T10:22:39;19.27;;;7.40;;
3795;SDS011;1913;50.660;7.834;2023-10-13T10:25:09;15.80;;;7.53;;
3795;SDS011;1913;50.660;7.834;2023-10-13T10:27:56;15.40;;;7.00;;
3795;SDS011;1913;50.660;7.834;2023-10-13T10:30:26;10.93;;;7.07;;
3795;SDS011;1913;50.660;7.834;2023-10-13T10:32:56;12.97;;;7.00;;
3795;SDS011;1913;50.660;7.834;2023-10-13T10:35:26;17.80;;;7.13;;
3795;SDS011;1913;50.660;7.834;2023-10-13T10:38:16;13.40;;;6.90;;
3795;SDS011;1913;50.660;7.834;2023-10-13T10:40:58;12.97;;;6.90;;
3795;SDS011;1913;50.660;7.834;2023-10-13T10:43:29;12.87;;;6.87;;
3795;SDS011;1913;50.660;7.834;2023-10-13T10:46:10;13.30;;;7.43;;
3795;SDS011;1913;50.660;7.834;2023-10-13T10:48:37;20.23;;;7.27;;
3795;SDS011;1913;50.660;7.834;2023-10-13T10:51:07;17.80;;;7.03;;
3795;SDS011;1913;50.660;7.834;2023-10-13T10:53:46;14.63;;;6.80;;
3795;SDS011;1913;50.660;7.834;2023-10-13T10:56:12;16.87;;;7.83;;
3795;SDS011;1913;50.660;7.834;2023-10-13T10:58:50;15.40;;;6.83;;
3795;SDS011;1913;50.660;7.834;2023-10-13T11:01:23;14.20;;;6.67;;
3795;SDS011;1913;50.660;7.834;2023-10-13T11:03:58;20.13;;;6.97;;
3795;SDS011;1913;50.660;7.834;2023-10-13T11:06:44;18.60;;;6.83;;
3795;SDS011;1913;50.660;7.834;2023-10-13T11:09:14;12.47;;;7.80;;
3795;SDS011;1913;50.660;7.834;2023-10-13T11:11:55;19.90;;;7.77;;
3795;SDS011;1913;50.660;7.834;2023-10-13T11:14:23;11.60;;;7.40;;
3795;SDS011;1913;50.660;7.834;2023-10-13T11:16:49;9.93;;;7.10;;
3795;SDS011;1913;50.660;7.834;2023-10-13T11:19:19;13.73;;;7.00;;
3795;SDS011;1913;50.660;7.834;2023-10-13T11:21:50;12.13;;;6.60;;
3795;SDS011;1913;50.660;7.834;2023-10-13T11:24:15;15.83;;;6.43;;
3795;SDS011;1913;50.660;7.834;2023-10-13T11:26:42;15.10;;;7.37;;
3795;SDS011;1913;50.660;7.834;2023-10-13T11:29:19;15.87;;;7.03;;
3795;SDS011;1913;50.660;7.834;2023-10-13T11:31:56;13.43;;;6.73;;
3795;SDS011;1913;50.660;7.834;2023-10-13T11:34:25;22.17;;;7.47;;
3795;SDS011;1913;50.660;7.834;2023-10-13T11:36:55;14.40;;;6.87;;
3795;SDS011;1913;50.660;7.834;2023-10-13T11:39:20;15.43;;;7.47;;
3795;SDS011;1913;50.660;7.834;2023-10-13T11:41:58;14.97;;;6.53;;
3795;SDS011;1913;50.660;7.834;2023-10-13T11:44:23;10.93;;;6.70;;
3795;SDS011;1913;50.660;7.834;2023-10-13T11:46:49;12.70;;;6.87;;
3795;SDS011;1913;50.660;7.834;2023-10-13T11:49:20;12.60;;;6.87;;
3795;SDS011;1913;50.660;7.834;2023-10-13T11:51:52;12.60;;;6.80;;
3795;SDS011;1913;50.660;7.834;2023-10-13T11:54:18;14.67;;;7.10;;
3795;SDS011;1913;50.660;7.834;2023-10-13T11:56:45;15.50;;;6.60;;
3795;SDS011;1913;50.660;7.834;2023-10-13T11:59:11;9.97;;;6.13;;
3795;SDS011;1913;50.660;7.834;2023-10-13T12:01:43;15.43;;;6.93;;
3795;SDS011;1913;50.660;7.834;2023-10-13T12:04:27;12.47;;;7.23;;
3795;SDS011;1913;50.660;7.834;2023-10-13T12:06:58;8.57;;;6.57;;
3795;SDS011;1913;50.660;7.834;2023-10-13T12:09:40;10.13;;;6.73;;
3795;SDS011;1913;50.660;7.834;2023-10-13T12:12:24;13.20;;;6.83;;
3795;SDS011;1913;50.660;7.834;2023-10-13T12:14:50;13.77;;;6.80;;
3795;SDS011;1913;50.660;7.834;2023-10-13T12:17:28;15.60;;;7.50;;
3795;SDS011;1913;50.660;7.834;2023-10-13T12:20:00;19.70;;;6.43;;
3795;SDS011;1913;50.660;7.834;2023-10-13T12:22:26;18.57;;;7.07;;
3795;SDS011;1913;50.660;7.834;2023-10-13T12:25:00;11.93;;;6.77;;
3795;SDS011;1913;50.660;7.834;2023-10-13T12:27:30;16.23;;;6.47;;
3795;SDS011;1913;50.660;7.834;2023-10-13T12:30:10;11.83;;;5.50;;
3795;SDS011;1913;50.660;7.834;2023-10-13T12:32:38;12.27;;;6.63;;
3795;SDS011;1913;50.660;7.834;2023-10-13T12:35:19;14.90;;;6.07;;
3795;SDS011;1913;50.660;7.834;2023-10-13T12:38:00;12.47;;;6.53;;
3795;SDS011;1913;50.660;7.834;2023-10-13T12:40:41;14.37;;;7.70;;
3795;SDS011;1913;50.660;7.834;2023-10-13T12:43:26;13.30;;;6.63;;
3795;SDS011;1913;50.660;7.834;2023-10-13T12:46:10;15.93;;;6.73;;
3795;SDS011;1913;50.660;7.834;2023-10-13T12:48:53;18.13;;;6.70;;
3795;SDS011;1913;50.660;7.834;2023-10-13T12:51:51;9.80;;;6.73;;
3795;SDS011;1913;50.660;7.834;2023-10-13T12:54:16;13.40;;;7.17;;
3795;SDS011;1913;50.660;7.834;2023-10-13T12:56:48;17.50;;;5.83;;
3795;SDS011;1913;50.660;7.834;2023-10-13T12:59:13;11.83;;;6.47;;
3795;SDS011;1913;50.660;7.834;2023-10-13T13:01:39;13.60;;;6.60;;
3795;SDS011;1913;50.660;7.834;2023-10-13T13:04:11;13.03;;;6.63;;
3795;SDS011;1913;50.660;7.834;2023-10-13T13:06:43;12.63;;;6.70;;
3795;SDS011;1913;50.660;7.834;2023-10-13T13:09:09;14.80;;;6.10;;
3795;SDS011;1913;50.660;7.834;2023-10-13T13:11:34;14.20;;;6.10;;
3795;SDS011;1913;50.660;7.834;2023-10-13T13:14:04;16.00;;;5.90;;
3795;SDS011;1913;50.660;7.834;2023-10-13T13:16:35;8.83;;;6.33;;
3795;SDS011;1913;50.660;7.834;2023-10-13T13:19:04;8.70;;;5.80;;
3795;SDS011;1913;50.660;7.834;2023-10-13T13:21:37;11.03;;;6.33;;
3795;SDS011;1913;50.660;7.834;2023-10-13T13:24:03;11.97;;;5.93;;
3795;SDS011;1913;50.660;7.834;2023-10-13T13:26:30;13.20;;;6.40;;
3795;SDS011;1913;50.660;7.834;2023-10-13T13:28:58;14.23;;;6.07;;
3795;SDS011;1913;50.660;7.834;2023-10-13T13:31:24;14.27;;;5.87;;
3795;SDS011;1913;50.660;7.834;2023-10-13T13:33:54;13.70;;;6.63;;
3795;SDS011;1913;50.660;7.834;2023-10-13T13:36:19;14.40;;;6.53;;
3795;SDS011;1913;50.660;7.834;2023-10-13T13:38:47;12.27;;;5.60;;
3795;SDS011;1913;50.660;7.834;2023-10-13T13:41:15;15.93;;;6.80;;
3795;SDS011;1913;50.660;7.834;2023-10-13T13:43:44;14.60;;;6.20;;
3795;SDS011;1913;50.660;7.834;2023-10-13T13:46:20;17.50;;;6.00;;
3795;SDS011;1913;50.660;7.834;2023-10-13T13:48:50;16.30;;;6.40;;
3795;SDS011;1913;50.660;7.834;2023-10-13T13:51:16;18.93;;;5.80;;
3795;SDS011;1913;50.660;7.834;2023-10-13T13:53:51;12.90;;;6.40;;
3795;SDS011;1913;50.660;7.834;2023-10-13T13:56:17;10.30;;;5.73;;
3795;SDS011;1913;50.660;7.834;2023-10-13T13:58:47;14.50;;;6.17;;
3795;SDS011;1913;50.660;7.834;2023-10-13T14:01:14;13.47;;;6.50;;
3795;SDS011;1913;50.660;7.834;2023-10-13T14:03:41;11.57;;;6.20;;
3795;SDS011;1913;50.660;7.834;2023-10-13T14:06:10;15.30;;;6.67;;
3795;SDS011;1913;50.660;7.834;2023-10-13T14:08:46;11.40;;;6.30;;
3795;SDS011;1913;50.660;7.834;2023-10-13T14:11:19;10.53;;;6.07;;
3795;SDS011;1913;50.660;7.834;2023-10-13T14:13:50;13.67;;;6.77;;
3795;SDS011;1913;50.660;7.834;2023-10-13T14:16:21;12.57;;;6.30;;
3795;SDS011;1913;50.660;7.834;2023-10-13T14:18:48;14.37;;;6.27;;
3795;SDS011;1913;50.660;7.834;2023-10-13T14:21:14;13.60;;;6.33;;
3795;SDS011;1913;50.660;7.834;2023-10-13T14:23:44;11.00;;;5.87;;
3795;SDS011;1913;50.660;7.834;2023-10-13T14:26:13;12.53;;;5.90;;
3795;SDS011;1913;50.660;7.834;2023-10-13T14:28:39;13.00;;;5.77;;
3795;SDS011;1913;50.660;7.834;2023-10-13T14:31:17;12.33;;;7.00;;
3795;SDS011;1913;50.660;7.834;2023-10-13T14:33:44;12.97;;;6.00;;
3795;SDS011;1913;50.660;7.834;2023-10-13T14:36:12;14.90;;;6.17;;
3795;SDS011;1913;50.660;7.834;2023-10-13T14:38:38;10.27;;;5.13;;
3795;SDS011;1913;50.660;7.834;2023-10-13T14:41:03;8.83;;;5.60;;
3795;SDS011;1913;50.660;7.834;2023-10-13T14:43:30;13.93;;;5.83;;
3795;SDS011;1913;50.660;7.834;2023-10-13T14:45:56;9.20;;;6.30;;
3795;SDS011;1913;50.660;7.834;2023-10-13T14:48:21;11.23;;;5.57;;
3795;SDS011;1913;50.660;7.834;2023-10-13T14:50:49;15.43;;;6.33;;
3795;SDS011;1913;50.660;7.834;2023-10-13T14:53:14;14.80;;;5.50;;
3795;SDS011;1913;50.660;7.834;2023-10-13T14:55:44;11.70;;;5.87;;
3795;SDS011;1913;50.660;7.834;2023-10-13T14:58:10;18.70;;;5.97;;
3795;SDS011;1913;50.660;7.834;2023-10-13T15:00:41;14.40;;;6.00;;
3795;SDS011;1913;50.660;7.834;2023-10-13T15:03:10;14.80;;;5.77;;
3795;SDS011;1913;50.660;7.834;2023-10-13T15:05:39;8.13;;;5.50;;
3795;SDS011;1913;50.660;7.834;2023-10-13T15:08:05;11.60;;;5.53;;
3795;SDS011;1913;50.660;7.834;2023-10-13T15:10:31;9.43;;;5.50;;
3795;SDS011;1913;50.660;7.834;2023-10-13T15:12:57;8.57;;;4.97;;
3795;SDS011;1913;50.660;7.834;2023-10-13T15:15:24;11.37;;;5.43;;
3795;SDS011;1913;50.660;7.834;2023-10-13T15:17:49;12.50;;;6.27;;
3795;SDS011;1913;50.660;7.834;2023-10-13T15:20:15;10.90;;;5.57;;
3795;SDS011;1913;50.660;7.834;2023-10-13T15:22:43;11.17;;;5.30;;
3795;SDS011;1913;50.660;7.834;2023-10-13T15:25:15;11.03;;;5.40;;
3795;SDS011;1913;50.660;7.834;2023-10-13T15:27:53;11.73;;;6.30;;
3795;SDS011;1913;50.660;7.834;2023-10-13T15:30:24;11.00;;;5.70;;
3795;SDS011;1913;50.660;7.834;2023-10-13T15:32:55;8.93;;;5.90;;
3795;SDS011;1913;50.660;7.834;2023-10-13T15:35:22;9.20;;;5.77;;
3795;SDS011;1913;50.660;7.834;2023-10-13T15:37:53;16.97;;;6.07;;
3795;SDS011;1913;50.660;7.834;2023-10-13T15:40:20;10.20;;;5.97;;
3795;SDS011;1913;50.660;7.834;2023-10-13T15:42:46;9.23;;;5.77;;